createdAt,value
2019-05-07T00:02:03.499Z,70.30
2019-05-07T00:07:22.508Z,70.38
2019-05-07T00:12:43.128Z,70.35
2019-05-07T00:18:03.166Z,70.29
2019-05-07T00:23:23.164Z,70.23
2019-05-07T00:28:43.240Z,70.29
2019-05-07T00:34:02.884Z,70.62
2019-05-07T00:39:32.844Z,71.28
2019-05-07T00:45:14.220Z,71.98
2019-05-07T00:50:23.987Z,71.51
2019-05-07T00:55:42.637Z,72.05
2019-05-07T01:01:02.571Z,72.44
2019-05-07T01:06:22.773Z,72.92
2019-05-07T01:11:42.892Z,73.40
2019-05-07T01:17:02.434Z,73.57
2019-05-07T01:22:22.219Z,73.55
2019-05-07T01:27:42.658Z,73.56
2019-05-07T01:33:15.044Z,74.01
2019-05-07T01:38:34.757Z,74.28
2019-05-07T01:43:54.786Z,74.22
2019-05-07T01:49:13.462Z,74.15
2019-05-07T01:54:33.278Z,74.64
2019-05-07T01:59:52.859Z,75.12
2019-05-07T02:05:13.331Z,75.08
2019-05-07T02:10:34.839Z,74.90
2019-05-07T02:16:00.162Z,75.46
2019-05-07T02:21:14.143Z,75.70
2019-05-07T02:26:32.782Z,75.59
2019-05-07T02:31:53.107Z,76.04
2019-05-07T02:37:13.398Z,76.14
2019-05-07T02:42:33.592Z,76.60
2019-05-07T02:47:52.656Z,76.85
2019-05-07T02:53:29.189Z,77.04
2019-05-07T02:58:47.754Z,76.99
2019-05-07T03:04:06.861Z,76.77
2019-05-07T03:09:25.440Z,76.52
2019-05-07T03:14:44.120Z,77.66
2019-05-07T03:20:04.410Z,78.23
2019-05-07T03:25:24.690Z,78.21
2019-05-07T03:30:46.017Z,78.21
2019-05-07T03:36:07.779Z,78.35
2019-05-07T03:41:27.335Z,78.78
2019-05-07T03:46:57.846Z,78.76
2019-05-07T03:52:06.777Z,78.82
2019-05-07T03:57:25.510Z,78.75
2019-05-07T04:02:44.252Z,78.75
2019-05-07T04:08:03.519Z,78.73
2019-05-07T04:13:24.002Z,78.53
2019-05-07T04:18:43.678Z,78.25
2019-05-07T04:24:13.824Z,77.83
2019-05-07T04:29:35.100Z,78.14
2019-05-07T04:41:15.078Z,78.28
2019-05-07T04:46:33.898Z,77.90
2019-05-07T04:51:54.472Z,77.97
2019-05-07T04:57:26.064Z,77.42
2019-05-07T05:02:53.135Z,76.85
2019-05-07T05:08:13.350Z,75.43
2019-05-07T05:13:33.309Z,72.59
2019-05-07T05:18:52.540Z,71.39
2019-05-07T05:24:16.199Z,70.45
2019-05-07T05:29:36.311Z,70.24
2019-05-07T05:34:56.948Z,68.46
2019-05-07T05:40:15.966Z,68.51
2019-05-07T05:45:39.426Z,63.62
2019-05-07T05:51:02.785Z,61.15
2019-05-07T05:56:32.661Z,59.36
2019-05-07T06:02:03.399Z,59.00
2019-05-07T06:07:31.769Z,57.13
2019-05-07T06:12:52.286Z,55.91
2019-05-07T06:18:20.947Z,56.46
2019-05-07T06:23:34.554Z,56.43
2019-05-07T06:28:53.198Z,55.48
2019-05-07T06:34:12.500Z,55.11
2019-05-07T06:39:35.946Z,54.46
2019-05-07T06:45:12.463Z,52.53
2019-05-07T06:50:32.721Z,50.33
2019-05-07T06:55:52.126Z,48.62
2019-05-07T07:01:12.360Z,48.66
2019-05-07T07:06:35.816Z,47.23
2019-05-07T07:11:56.079Z,45.00
2019-05-07T07:17:14.725Z,42.76
2019-05-07T07:22:33.429Z,42.49
2019-05-07T07:27:52.185Z,43.81
2019-05-07T07:33:12.460Z,41.13
2019-05-07T07:38:35.284Z,44.14
2019-05-07T07:43:53.904Z,45.91
2019-05-07T07:49:15.128Z,43.70
2019-05-07T07:54:33.014Z,42.60
2019-05-07T07:59:55.640Z,40.84
2019-05-07T08:05:14.517Z,43.18
2019-05-07T08:10:33.213Z,41.50
2019-05-07T08:15:52.112Z,39.83
2019-05-07T08:21:12.033Z,42.62
2019-05-07T08:26:32.293Z,41.88
2019-05-07T08:32:09.134Z,45.32
2019-05-07T08:37:27.836Z,44.78
2019-05-07T08:42:46.457Z,42.96
2019-05-07T08:48:06.861Z,42.44
2019-05-07T08:53:25.502Z,44.91
2019-05-07T08:58:44.210Z,42.98
2019-05-07T09:04:02.903Z,43.72
2019-05-07T09:09:22.311Z,46.17
2019-05-07T09:14:42.553Z,45.58
2019-05-07T09:20:02.546Z,47.43
2019-05-07T09:25:22.305Z,44.20
2019-05-07T09:30:57.666Z,43.04
2019-05-07T09:36:17.952Z,42.92
2019-05-07T09:41:36.562Z,44.08
2019-05-07T09:46:55.185Z,43.77
2019-05-07T09:52:13.767Z,42.55
2019-05-07T09:57:34.780Z,41.21
2019-05-07T10:02:52.988Z,41.43
2019-05-07T10:08:12.885Z,42.64
2019-05-07T10:13:33.329Z,44.08
2019-05-07T10:18:52.103Z,42.94
2019-05-07T10:24:12.870Z,42.07
2019-05-07T10:29:32.198Z,43.23
2019-05-07T10:34:52.522Z,45.39
2019-05-07T10:40:12.400Z,46.05
2019-05-07T10:45:35.601Z,48.79
2019-05-07T10:50:55.863Z,48.68
2019-05-07T10:56:14.575Z,48.91
2019-05-07T11:01:38.574Z,48.39
2019-05-07T11:06:58.998Z,50.01
2019-05-07T11:12:17.617Z,52.25
2019-05-07T11:17:52.085Z,54.26
2019-05-07T11:23:10.833Z,52.55
2019-05-07T11:28:29.482Z,49.72
2019-05-07T11:33:48.414Z,47.44
2019-05-07T11:39:07.679Z,44.42
2019-05-07T11:44:27.978Z,44.73
2019-05-07T11:50:04.740Z,43.89
2019-05-07T11:55:23.459Z,43.34
2019-05-07T12:01:03.424Z,42.43
2019-05-07T12:06:21.680Z,42.71
2019-05-07T12:11:42.497Z,41.24
2019-05-07T12:17:02.690Z,41.06
2019-05-07T12:22:23.099Z,38.79
2019-05-07T12:27:41.977Z,38.39
2019-05-07T12:33:02.427Z,37.84
2019-05-07T12:38:21.882Z,40.09
2019-05-07T12:43:42.337Z,38.25
2019-05-07T12:49:03.087Z,36.59
2019-05-07T12:54:39.472Z,37.79
2019-05-07T13:00:01.958Z,37.60
2019-05-07T13:05:20.229Z,40.14
2019-05-07T13:10:38.876Z,39.40
2019-05-07T13:15:57.643Z,38.42
2019-05-07T13:21:16.307Z,39.35
2019-05-07T13:26:35.015Z,37.09
2019-05-07T13:31:55.791Z,37.43
2019-05-07T13:37:19.271Z,36.44
2019-05-07T13:42:43.982Z,34.88
2019-05-07T13:48:04.145Z,36.05
2019-05-07T13:53:22.999Z,35.11
2019-05-07T13:58:42.838Z,34.74
2019-05-07T14:04:03.989Z,37.04
2019-05-07T14:09:24.440Z,37.99
2019-05-07T14:14:43.346Z,36.37
2019-05-07T14:20:04.929Z,36.18
2019-05-07T14:25:24.122Z,37.56
2019-05-07T14:30:42.997Z,38.50
2019-05-07T14:36:03.281Z,36.91
2019-05-07T14:41:25.310Z,38.74
2019-05-07T14:46:50.350Z,39.12
2019-05-07T14:52:03.274Z,36.84
2019-05-07T14:57:22.279Z,39.45
2019-05-07T15:02:42.217Z,38.04
2019-05-07T15:08:10.727Z,38.50
2019-05-07T15:13:21.861Z,40.42
2019-05-07T15:18:43.562Z,40.05
2019-05-07T15:24:02.976Z,41.16
2019-05-07T15:29:22.352Z,41.54
2019-05-07T15:34:42.134Z,39.92
2019-05-07T15:40:02.466Z,39.78
2019-05-07T15:45:21.724Z,40.48
2019-05-07T15:50:42.719Z,38.45
2019-05-07T15:56:01.792Z,39.60
2019-05-07T16:01:22.183Z,41.04
2019-05-07T16:06:42.491Z,40.71
2019-05-07T16:12:01.617Z,40.62
2019-05-07T16:17:27.751Z,40.17
2019-05-07T16:22:54.820Z,40.07
2019-05-07T16:28:12.752Z,39.60
2019-05-07T16:33:34.746Z,38.30
2019-05-07T16:38:53.576Z,38.44
2019-05-07T16:44:12.438Z,38.94
2019-05-07T16:49:37.215Z,38.75
2019-05-07T16:54:55.844Z,40.15
2019-05-07T17:00:17.862Z,38.83
2019-05-07T17:05:36.488Z,39.50
2019-05-07T17:10:55.300Z,39.78
2019-05-07T17:16:14.425Z,38.95
2019-05-07T17:21:33.140Z,40.16
2019-05-07T17:26:51.888Z,41.17
2019-05-07T17:32:12.295Z,39.67
2019-05-07T17:37:33.003Z,39.67
2019-05-07T17:42:52.465Z,40.84
2019-05-07T17:48:12.351Z,40.69
2019-05-07T17:53:31.994Z,41.40
2019-05-07T17:58:52.251Z,41.03
2019-05-07T18:04:10.990Z,41.18
2019-05-07T18:09:31.739Z,41.04
2019-05-07T18:14:52.668Z,40.44
2019-05-07T18:20:12.881Z,40.79
2019-05-07T18:25:32.516Z,41.29
2019-05-07T18:30:51.252Z,42.32
2019-05-07T18:36:12.001Z,44.26
2019-05-07T18:41:32.559Z,43.08
2019-05-07T18:46:52.686Z,48.21
2019-05-07T18:52:12.203Z,49.87
2019-05-07T18:57:32.808Z,51.45
2019-05-07T19:02:53.288Z,53.20
2019-05-07T19:08:12.698Z,54.27
2019-05-07T19:13:32.617Z,55.17
2019-05-07T19:18:51.433Z,56.12
2019-05-07T19:24:10.244Z,56.49
2019-05-07T19:29:33.227Z,57.87
2019-05-07T19:34:53.427Z,58.02
2019-05-07T19:40:13.013Z,59.08
2019-05-07T19:45:31.711Z,59.83
2019-05-07T19:50:52.657Z,59.91
2019-05-07T19:56:18.830Z,60.79
2019-05-07T20:01:39.286Z,60.94
2019-05-07T20:06:59.300Z,61.64
2019-05-07T20:12:18.842Z,61.64
2019-05-07T20:17:37.531Z,62.38
2019-05-07T20:23:06.631Z,62.86
2019-05-07T20:28:25.274Z,63.69
2019-05-07T20:33:44.132Z,63.53
2019-05-07T20:39:04.775Z,64.11
2019-05-07T20:44:23.509Z,64.73
2019-05-07T20:49:42.859Z,64.78
2019-05-07T20:55:03.161Z,64.73
2019-05-07T21:00:23.674Z,65.32
2019-05-07T21:05:42.351Z,66.84
2019-05-07T21:11:02.561Z,67.10
2019-05-07T21:16:22.189Z,68.73
2019-05-07T21:21:42.223Z,69.45
2019-05-07T21:27:02.565Z,70.63
2019-05-07T21:32:23.138Z,70.73
2019-05-07T21:37:41.920Z,71.48
2019-05-07T21:43:00.564Z,71.93
2019-05-07T21:48:19.141Z,72.16
2019-05-07T21:53:39.428Z,72.62
2019-05-07T21:59:03.095Z,73.02
2019-05-07T22:04:21.980Z,73.27
2019-05-07T22:09:40.599Z,73.40
2019-05-07T22:14:59.151Z,73.50
2019-05-07T22:20:17.869Z,73.57
2019-05-07T22:25:36.432Z,74.03
2019-05-07T22:30:56.631Z,74.53
2019-05-07T22:36:15.348Z,74.15
2019-05-07T22:41:33.916Z,72.88
2019-05-07T22:46:52.855Z,72.90
2019-05-07T22:52:12.770Z,72.69
2019-05-07T22:57:48.287Z,71.92
2019-05-07T23:03:06.848Z,70.17
2019-05-07T23:08:25.480Z,71.49
2019-05-07T23:13:44.237Z,70.64
2019-05-07T23:19:02.802Z,70.47
2019-05-07T23:24:22.695Z,70.93
2019-05-07T23:29:43.773Z,70.65
2019-05-07T23:35:02.275Z,70.90
2019-05-07T23:40:28.345Z,70.26
2019-05-07T23:45:47.043Z,69.41
2019-05-07T23:51:05.607Z,65.98
2019-05-07T23:56:24.441Z,64.51
